Terminal Aerodrome Forecast
Issued by NWS

Home | Current Version | Previous Version | Text Only | Print | Product List | Glossary On
Versions: 1 2 3 4 5 6 7 8 9 10 11 12 13 14 15
000
FTUS41 KBGM 242345 RRA
TAFITH
TAF
KITH 242345Z 2500/2524 01006KT P6SM BKN150
     FM250500 VRB04KT P6SM OVC070
      TEMPO 2513/2516 4SM -SHRA OVC040
     FM251600 26009KT P6SM BKN100
      TEMPO 2519/2523 24015G25KT 3SM -TSRA BR BKN040CB OVC080=

USA.gov is the U.S. government's official web portal to all federal, state and local government web resources and services.